createdAt,value
2022-12-26T05:18:19.050Z,8.87
2022-12-26T05:21:04.311Z,8.46
2022-12-26T05:23:49.269Z,8.32
2022-12-26T05:26:40.541Z,8.61
2022-12-26T05:29:07.435Z,8.61
2022-12-26T05:31:36.569Z,8.32
2022-12-26T05:34:10.469Z,8.51
2022-12-26T05:36:50.679Z,8.49
2022-12-26T05:39:17.606Z,8.36
2022-12-26T05:41:44.165Z,8.00
2022-12-26T05:44:11.993Z,8.47
2022-12-26T05:46:39.276Z,8.41
2022-12-26T05:49:06.954Z,7.93
2022-12-26T05:51:33.871Z,7.98
2022-12-26T05:54:00.673Z,8.01
2022-12-26T05:56:27.427Z,8.03
2022-12-26T05:58:59.853Z,8.14
2022-12-26T06:01:28.724Z,8.45
2022-12-26T06:03:58.000Z,8.50
2022-12-26T06:06:25.781Z,8.45
2022-12-26T06:08:54.381Z,8.50
2022-12-26T06:11:22.279Z,8.30
2022-12-26T06:13:48.821Z,8.07
2022-12-26T06:16:17.517Z,8.43
2022-12-26T06:18:44.990Z,8.31
2022-12-26T06:21:14.687Z,8.21
2022-12-26T06:23:42.714Z,8.19
2022-12-26T06:26:10.464Z,8.32
2022-12-26T06:28:37.702Z,8.18
2022-12-26T06:31:06.370Z,8.39
2022-12-26T06:33:32.916Z,8.25
2022-12-26T06:36:08.334Z,8.31
2022-12-26T06:38:34.883Z,8.08
2022-12-26T06:41:01.852Z,8.48
2022-12-26T06:43:28.380Z,8.37
2022-12-26T06:45:56.618Z,8.41
2022-12-26T06:48:23.358Z,8.40
2022-12-26T06:51:06.793Z,8.30
2022-12-26T06:53:34.603Z,8.37
2022-12-26T06:56:08.641Z,8.77
2022-12-26T06:58:35.128Z,8.73
2022-12-26T07:01:10.672Z,8.75
2022-12-26T07:03:37.927Z,8.73
2022-12-26T07:06:06.935Z,8.18
2022-12-26T07:08:34.363Z,8.34
2022-12-26T07:11:01.015Z,8.48
2022-12-26T07:13:27.854Z,8.48
2022-12-26T07:15:54.319Z,8.65
2022-12-26T07:18:20.843Z,8.56
2022-12-26T07:20:47.916Z,8.76
2022-12-26T07:23:14.408Z,8.66
2022-12-26T07:25:40.872Z,8.66
2022-12-26T07:28:07.341Z,8.37
2022-12-26T07:30:33.904Z,8.36
2022-12-26T07:33:00.334Z,8.16
2022-12-26T07:35:26.864Z,8.16
2022-12-26T07:37:53.327Z,8.14
2022-12-26T07:40:19.906Z,8.21
2022-12-26T07:42:46.462Z,7.71
2022-12-26T07:45:13.266Z,7.81
2022-12-26T07:47:39.706Z,7.98
2022-12-26T07:50:06.830Z,7.81
2022-12-26T07:52:33.411Z,7.44
2022-12-26T07:55:00.299Z,7.92
2022-12-26T07:57:48.005Z,8.03
2022-12-26T08:00:14.379Z,7.91
2022-12-26T08:02:41.100Z,8.02
2022-12-26T08:05:08.175Z,7.92
2022-12-26T08:07:34.617Z,8.15
2022-12-26T08:10:01.943Z,8.28
2022-12-26T08:12:28.427Z,8.00
2022-12-26T08:14:54.981Z,8.25
2022-12-26T08:17:21.480Z,8.50
2022-12-26T08:19:48.027Z,8.64
2022-12-26T08:22:14.513Z,8.67
2022-12-26T08:24:41.318Z,8.81
2022-12-26T08:27:07.874Z,8.82
2022-12-26T08:29:34.595Z,8.37
2022-12-26T08:32:01.161Z,8.37
2022-12-26T08:34:33.634Z,8.24
2022-12-26T08:37:00.103Z,8.30
2022-12-26T08:39:27.660Z,8.52
2022-12-26T08:41:54.163Z,8.67
2022-12-26T08:44:28.668Z,8.77
2022-12-26T08:46:55.693Z,8.84
2022-12-26T08:49:22.158Z,8.64
2022-12-26T08:51:48.617Z,8.58
2022-12-26T08:54:15.150Z,8.57
2022-12-26T08:56:41.729Z,8.55
2022-12-26T08:59:08.247Z,8.61
2022-12-26T09:01:35.017Z,8.81
2022-12-26T09:04:03.470Z,8.83
2022-12-26T09:06:33.366Z,8.86
2022-12-26T09:09:00.555Z,8.90
2022-12-26T09:11:28.760Z,9.03
2022-12-26T09:13:57.701Z,9.13
2022-12-26T09:16:27.037Z,9.22
2022-12-26T09:18:56.656Z,9.15
2022-12-26T09:21:23.631Z,9.26
2022-12-26T09:23:50.116Z,8.89
2022-12-26T09:26:20.905Z,8.84
2022-12-26T09:28:48.116Z,8.83
2022-12-26T09:31:20.749Z,9.09
2022-12-26T09:33:48.404Z,9.11
2022-12-26T09:36:21.280Z,8.72
2022-12-26T09:38:48.661Z,8.29
2022-12-26T09:41:46.054Z,8.11
2022-12-26T09:44:34.347Z,7.77
2022-12-26T09:47:25.139Z,7.97
2022-12-26T09:50:09.322Z,7.69
2022-12-26T09:52:45.987Z,7.64
2022-12-26T09:55:39.947Z,7.67
2022-12-26T09:58:15.494Z,7.78
2022-12-26T10:01:05.645Z,7.77
2022-12-26T10:03:41.199Z,8.16
2022-12-26T10:06:13.887Z,8.18
2022-12-26T10:09:05.588Z,7.77
2022-12-26T10:11:57.034Z,8.20
2022-12-26T10:14:48.526Z,8.31
2022-12-26T10:17:25.012Z,8.39
2022-12-26T10:20:04.058Z,8.08
2022-12-26T10:22:48.945Z,8.24
2022-12-26T10:25:20.628Z,8.40
2022-12-26T10:27:50.337Z,8.30
2022-12-26T10:30:27.390Z,8.05
2022-12-26T10:33:03.299Z,8.43
2022-12-26T10:35:35.283Z,8.27
2022-12-26T10:38:10.474Z,8.29
2022-12-26T10:40:42.085Z,8.02
2022-12-26T10:43:20.767Z,8.15
2022-12-26T10:46:06.133Z,7.89
2022-12-26T10:48:32.934Z,7.78
2022-12-26T10:50:59.593Z,7.92
2022-12-26T10:53:26.164Z,8.13
2022-12-26T10:55:52.768Z,8.21
2022-12-26T10:58:23.058Z,8.17
2022-12-26T11:00:49.933Z,8.35
2022-12-26T11:03:19.540Z,8.50
2022-12-26T11:06:07.404Z,8.14
2022-12-26T11:08:43.936Z,8.35
2022-12-26T11:11:26.746Z,8.43
2022-12-26T11:14:03.291Z,8.17
2022-12-26T11:16:33.800Z,8.39
2022-12-26T11:19:01.568Z,8.48
2022-12-26T11:21:30.144Z,8.53
2022-12-26T11:24:19.612Z,8.46
2022-12-26T11:26:46.442Z,8.47
2022-12-26T11:29:16.000Z,8.80
2022-12-26T11:32:00.602Z,8.63
2022-12-26T11:34:34.333Z,8.99
2022-12-26T11:37:01.586Z,8.33
2022-12-26T11:39:32.985Z,8.40
2022-12-26T11:41:59.909Z,8.61
2022-12-26T11:44:33.864Z,8.62
2022-12-26T11:47:01.833Z,8.73
2022-12-26T11:49:33.575Z,8.44
2022-12-26T11:52:03.471Z,9.06
2022-12-26T11:54:36.290Z,9.06
2022-12-26T11:57:22.306Z,8.65
2022-12-26T11:59:51.642Z,9.00
2022-12-26T12:02:25.527Z,8.62
2022-12-26T12:04:55.465Z,8.33
2022-12-26T12:07:47.499Z,8.35
2022-12-26T12:10:48.692Z,8.62
2022-12-26T12:13:29.380Z,8.70
2022-12-26T12:16:14.201Z,8.92
2022-12-26T12:19:17.867Z,8.84
2022-12-26T12:21:49.774Z,8.79
2022-12-26T12:24:43.755Z,8.81
2022-12-26T12:27:25.623Z,8.95
2022-12-26T12:30:37.453Z,8.70
2022-12-26T12:33:07.759Z,8.71
2022-12-26T12:36:06.928Z,8.85
2022-12-26T12:38:48.328Z,8.91
2022-12-26T12:41:26.485Z,8.67
2022-12-26T12:44:19.494Z,8.46
2022-12-26T12:47:10.652Z,8.43
2022-12-26T12:50:12.469Z,8.77
2022-12-26T12:52:52.868Z,9.07
2022-12-26T12:55:44.700Z,9.16
2022-12-26T12:58:36.031Z,8.89
2022-12-26T13:01:11.018Z,8.59
2022-12-26T13:03:50.121Z,9.02
2022-12-26T13:06:25.518Z,8.71
2022-12-26T13:09:13.362Z,8.68
2022-12-26T13:11:51.956Z,8.20
2022-12-26T13:14:30.886Z,8.34
2022-12-26T13:17:06.491Z,8.76
2022-12-26T13:19:48.641Z,8.71
2022-12-26T13:22:25.783Z,8.82
2022-12-26T13:25:00.925Z,8.73
2022-12-26T13:27:33.825Z,8.80
2022-12-26T13:30:00.362Z,8.70
2022-12-26T13:32:28.071Z,8.42
2022-12-26T13:35:00.701Z,8.87
2022-12-26T13:37:39.266Z,8.66
2022-12-26T13:40:21.349Z,8.30
2022-12-26T13:43:15.214Z,8.30
2022-12-26T13:45:41.695Z,8.51
2022-12-26T13:48:17.103Z,8.98
2022-12-26T13:50:55.318Z,8.90
2022-12-26T13:53:25.718Z,8.62
2022-12-26T13:55:54.693Z,7.90
2022-12-26T13:58:49.345Z,7.43
2022-12-26T14:01:41.232Z,7.58
2022-12-26T14:04:35.862Z,7.43
2022-12-26T14:07:05.347Z,7.39
2022-12-26T14:09:44.028Z,7.36
2022-12-26T14:12:35.234Z,7.81
2022-12-26T14:15:20.256Z,7.53
2022-12-26T14:18:05.299Z,7.61
2022-12-26T14:20:44.736Z,7.67
2022-12-26T14:23:39.098Z,7.72
2022-12-26T14:26:39.684Z,7.55
2022-12-26T14:29:28.404Z,7.08
2022-12-26T14:32:16.952Z,7.37
2022-12-26T14:34:53.831Z,7.49
2022-12-26T14:37:55.124Z,7.39
2022-12-26T14:40:58.909Z,7.11
2022-12-26T14:43:30.258Z,7.05
2022-12-26T14:45:58.349Z,6.98
2022-12-26T14:48:29.646Z,7.05
2022-12-26T14:51:23.488Z,7.34
2022-12-26T14:54:22.151Z,7.41
2022-12-26T14:56:51.161Z,7.58
2022-12-26T14:59:29.151Z,7.27
2022-12-26T15:02:02.020Z,7.14
2022-12-26T15:04:46.869Z,7.37
2022-12-26T15:07:32.184Z,7.64
2022-12-26T15:10:26.629Z,7.47
2022-12-26T15:13:25.631Z,7.68
2022-12-26T15:16:12.078Z,7.31
2022-12-26T15:18:44.824Z,7.00
2022-12-26T15:21:36.002Z,7.13
2022-12-26T15:25:08.688Z,6.84
2022-12-26T15:27:29.650Z,7.03
2022-12-26T15:30:28.376Z,7.10
2022-12-26T15:33:05.291Z,6.65
2022-12-26T15:35:49.098Z,7.06
2022-12-26T15:38:21.536Z,6.93
2022-12-26T15:41:12.854Z,6.95
2022-12-26T15:43:56.831Z,7.30
2022-12-26T15:46:46.681Z,6.92
2022-12-26T15:49:33.330Z,6.84
2022-12-26T15:52:21.226Z,6.96
2022-12-26T15:55:09.416Z,6.99
2022-12-26T15:57:59.130Z,7.09
2022-12-26T16:00:29.575Z,7.33
2022-12-26T16:03:33.825Z,7.21
2022-12-26T16:06:38.123Z,7.31
2022-12-26T16:09:27.417Z,7.20
2022-12-26T16:11:56.673Z,7.03
2022-12-26T16:14:33.571Z,6.56
2022-12-26T16:17:18.990Z,6.54
2022-12-26T16:19:48.333Z,6.74
2022-12-26T16:22:46.977Z,7.08
2022-12-26T16:25:18.303Z,6.87
2022-12-26T16:27:46.308Z,6.82
2022-12-26T16:30:25.139Z,6.37
2022-12-26T16:32:52.758Z,6.21
2022-12-26T16:35:31.629Z,6.05
2022-12-26T16:38:00.214Z,6.35
2022-12-26T16:40:38.583Z,6.09
2022-12-26T16:43:14.206Z,6.15
2022-12-26T16:45:41.654Z,6.50
2022-12-26T16:48:12.615Z,6.23
2022-12-26T16:50:47.686Z,5.92
2022-12-26T16:53:17.914Z,6.03
2022-12-26T16:55:48.152Z,5.92
2022-12-26T16:58:24.834Z,6.05
2022-12-26T17:01:04.885Z,6.16
2022-12-26T17:03:49.510Z,6.11
2022-12-26T17:06:24.802Z,5.94
2022-12-26T17:08:52.509Z,6.06
2022-12-26T17:11:27.786Z,5.99
2022-12-26T17:13:55.867Z,5.89
2022-12-26T17:16:28.926Z,5.72
2022-12-26T17:19:11.588Z,5.48
2022-12-26T17:21:38.124Z,5.40
2022-12-26T17:24:25.842Z,5.74
2022-12-26T17:27:08.055Z,5.91
2022-12-26T17:29:37.338Z,6.21
2022-12-26T17:32:08.702Z,5.88
2022-12-26T17:34:38.210Z,6.16
2022-12-26T17:37:20.660Z,6.45
2022-12-26T17:40:13.547Z,6.73
2022-12-26T17:42:49.294Z,6.70
2022-12-26T17:45:18.431Z,6.50
2022-12-26T17:47:45.133Z,6.22
2022-12-26T17:50:12.191Z,6.41
2022-12-26T17:52:38.989Z,6.25
2022-12-26T17:55:14.217Z,6.21
2022-12-26T17:57:40.705Z,5.99
2022-12-26T18:00:18.421Z,5.85
2022-12-26T18:02:45.052Z,5.69
2022-12-26T18:05:11.670Z,5.76
2022-12-26T18:07:38.244Z,5.76
2022-12-26T18:10:05.547Z,5.58
2022-12-26T18:12:32.537Z,5.81
2022-12-26T18:15:02.130Z,5.79
2022-12-26T18:17:32.892Z,6.19
2022-12-26T18:20:00.399Z,5.43
2022-12-26T18:22:26.868Z,5.85
2022-12-26T18:24:53.399Z,5.98
2022-12-26T18:27:24.977Z,6.17
2022-12-26T18:29:51.448Z,5.95
2022-12-26T18:32:28.117Z,5.97
2022-12-26T18:34:55.500Z,5.71
2022-12-26T18:37:24.489Z,5.62
2022-12-26T18:39:51.789Z,5.86
2022-12-26T18:42:18.574Z,5.67
2022-12-26T18:44:45.119Z,5.51
2022-12-26T18:47:19.441Z,5.34
2022-12-26T18:49:46.429Z,5.14
2022-12-26T18:52:17.708Z,5.17
2022-12-26T18:54:44.954Z,5.10
2022-12-26T18:57:17.727Z,5.17
2022-12-26T18:59:44.489Z,5.24
2022-12-26T19:02:18.250Z,5.38
2022-12-26T19:04:46.456Z,5.26
2022-12-26T19:07:12.997Z,5.18
2022-12-26T19:09:43.986Z,5.16
2022-12-26T19:12:10.934Z,5.15
2022-12-26T19:14:37.644Z,4.96
2022-12-26T19:17:04.097Z,5.03
2022-12-26T19:19:31.644Z,4.97
2022-12-26T19:21:58.130Z,5.25
2022-12-26T19:24:24.728Z,5.01
2022-12-26T19:26:51.223Z,4.89
2022-12-26T19:29:17.732Z,4.62
2022-12-26T19:31:44.326Z,4.81
2022-12-26T19:34:10.885Z,4.62
2022-12-26T19:36:37.511Z,4.65
2022-12-26T19:39:04.058Z,4.75
2022-12-26T19:41:30.631Z,4.41
2022-12-26T19:44:00.225Z,4.43
2022-12-26T19:46:27.780Z,4.46
2022-12-26T19:48:55.003Z,4.70
2022-12-26T19:51:22.388Z,4.74
2022-12-26T19:53:48.976Z,4.80
2022-12-26T19:56:21.518Z,4.48
2022-12-26T19:58:54.545Z,4.77
2022-12-26T20:01:29.236Z,4.82
2022-12-26T20:03:57.861Z,4.81
2022-12-26T20:06:26.613Z,4.68
2022-12-26T20:08:57.963Z,4.66
2022-12-26T20:11:28.703Z,4.48
2022-12-26T20:13:55.239Z,4.48
2022-12-26T20:17:03.325Z,4.61
2022-12-26T20:19:11.167Z,4.68
2022-12-26T20:21:38.450Z,4.65
2022-12-26T20:24:05.470Z,4.74
2022-12-26T20:26:32.261Z,4.57
2022-12-26T20:29:03.431Z,4.52
2022-12-26T20:31:32.282Z,4.33
2022-12-26T20:33:59.307Z,3.86
2022-12-26T20:36:28.864Z,4.07
2022-12-26T20:39:00.436Z,4.06
2022-12-26T20:41:28.179Z,4.00
2022-12-26T20:43:55.308Z,3.65
2022-12-26T20:46:24.630Z,3.78
2022-12-26T20:48:51.945Z,3.38
2022-12-26T20:51:23.192Z,3.27
2022-12-26T20:53:50.803Z,3.08
2022-12-26T20:56:17.379Z,3.50
2022-12-26T20:58:43.915Z,3.49
2022-12-26T21:01:16.249Z,3.36
2022-12-26T21:03:42.904Z,3.10
2022-12-26T21:06:12.169Z,3.10
2022-12-26T21:08:40.199Z,3.01
2022-12-26T21:11:25.493Z,3.10
2022-12-26T21:13:56.379Z,3.04
2022-12-26T21:16:32.123Z,2.83
2022-12-26T21:18:59.421Z,2.75
2022-12-26T21:21:32.271Z,3.17
2022-12-26T21:24:01.308Z,2.84
2022-12-26T21:26:28.691Z,2.52
2022-12-26T21:29:00.050Z,2.74
2022-12-26T21:31:27.688Z,2.44
2022-12-26T21:33:59.021Z,2.49
2022-12-26T21:36:26.707Z,2.45
2022-12-26T21:38:53.986Z,2.54
2022-12-26T21:41:21.222Z,2.79
2022-12-26T21:43:47.989Z,2.50
2022-12-26T21:46:20.050Z,2.35
2022-12-26T21:48:50.281Z,1.97
2022-12-26T21:51:18.183Z,2.10
2022-12-26T21:53:45.311Z,2.16
2022-12-26T21:56:13.478Z,2.17
2022-12-26T21:58:59.399Z,2.03
2022-12-26T22:01:27.271Z,2.08
2022-12-26T22:04:12.591Z,2.37
2022-12-26T22:06:40.219Z,2.55
2022-12-26T22:09:07.667Z,1.91
2022-12-26T22:11:52.849Z,1.92
2022-12-26T22:14:19.449Z,2.05
2022-12-26T22:16:46.198Z,1.57
2022-12-26T22:19:12.689Z,2.04
2022-12-26T22:21:39.199Z,2.14
2022-12-26T22:24:06.007Z,1.93
2022-12-26T22:26:32.559Z,2.25
2022-12-26T22:28:59.189Z,2.08
2022-12-26T22:31:32.285Z,1.85
2022-12-26T22:34:05.559Z,1.79
2022-12-26T22:36:33.125Z,2.05
2022-12-26T22:39:00.225Z,1.87
2022-12-26T22:41:27.753Z,2.04
2022-12-26T22:43:55.133Z,2.13
2022-12-26T22:46:21.943Z,2.02
2022-12-26T22:48:48.448Z,1.92
2022-12-26T22:51:20.279Z,1.35
2022-12-26T22:53:47.108Z,1.63
2022-12-26T22:56:14.627Z,1.62
2022-12-26T22:58:41.282Z,1.32
